sensor_id;sensor_type;location;lat;lon;timestamp;P1;durP1;ratioP1;P2;durP2;ratioP2
46230;SDS011;31949;51.404;-0.038;2022-12-10T00:01:37;19.35;;;11.98;;
46230;SDS011;31949;51.404;-0.038;2022-12-10T00:04:06;25.10;;;11.85;;
46230;SDS011;31949;51.404;-0.038;2022-12-10T00:06:34;23.75;;;11.82;;
46230;SDS011;31949;51.404;-0.038;2022-12-10T00:09:04;23.50;;;13.27;;
46230;SDS011;31949;51.404;-0.038;2022-12-10T00:11:33;31.52;;;15.63;;
46230;SDS011;31949;51.404;-0.038;2022-12-10T00:14:08;17.23;;;11.00;;
46230;SDS011;31949;51.404;-0.038;2022-12-10T00:16:35;22.50;;;13.43;;
46230;SDS011;31949;51.404;-0.038;2022-12-10T00:19:04;18.60;;;11.00;;
46230;SDS011;31949;51.404;-0.038;2022-12-10T00:21:35;24.23;;;13.90;;
46230;SDS011;31949;51.404;-0.038;2022-12-10T00:24:09;20.00;;;9.95;;
46230;SDS011;31949;51.404;-0.038;2022-12-10T00:26:41;20.05;;;12.02;;
46230;SDS011;31949;51.404;-0.038;2022-12-10T00:29:10;20.42;;;12.27;;
46230;SDS011;31949;51.404;-0.038;2022-12-10T00:31:40;24.88;;;14.45;;
46230;SDS011;31949;51.404;-0.038;2022-12-10T00:34:09;22.33;;;12.98;;
46230;SDS011;31949;51.404;-0.038;2022-12-10T00:36:58;29.38;;;15.32;;
46230;SDS011;31949;51.404;-0.038;2022-12-10T00:39:26;35.20;;;17.67;;
46230;SDS011;31949;51.404;-0.038;2022-12-10T00:41:54;28.27;;;13.32;;
46230;SDS011;31949;51.404;-0.038;2022-12-10T00:44:22;17.60;;;10.80;;
46230;SDS011;31949;51.404;-0.038;2022-12-10T00:46:49;20.88;;;11.88;;
46230;SDS011;31949;51.404;-0.038;2022-12-10T00:49:19;18.35;;;10.82;;
46230;SDS011;31949;51.404;-0.038;2022-12-10T00:51:50;87.55;;;44.58;;
46230;SDS011;31949;51.404;-0.038;2022-12-10T00:54:32;34.47;;;20.63;;
46230;SDS011;31949;51.404;-0.038;2022-12-10T00:57:02;21.88;;;14.18;;
46230;SDS011;31949;51.404;-0.038;2022-12-10T00:59:29;22.20;;;13.15;;
46230;SDS011;31949;51.404;-0.038;2022-12-10T01:01:57;16.60;;;10.27;;
46230;SDS011;31949;51.404;-0.038;2022-12-10T01:08:03;16.90;;;9.48;;
46230;SDS011;31949;51.404;-0.038;2022-12-10T01:10:39;12.88;;;8.45;;
46230;SDS011;31949;51.404;-0.038;2022-12-10T01:13:08;14.02;;;8.63;;
46230;SDS011;31949;51.404;-0.038;2022-12-10T01:15:39;15.27;;;9.07;;
46230;SDS011;31949;51.404;-0.038;2022-12-10T01:18:16;11.98;;;8.05;;
46230;SDS011;31949;51.404;-0.038;2022-12-10T01:20:46;16.27;;;8.90;;
46230;SDS011;31949;51.404;-0.038;2022-12-10T01:23:51;13.90;;;7.55;;
46230;SDS011;31949;51.404;-0.038;2022-12-10T01:29:11;16.70;;;7.97;;
46230;SDS011;31949;51.404;-0.038;2022-12-10T01:31:41;12.57;;;7.35;;
46230;SDS011;31949;51.404;-0.038;2022-12-10T01:34:11;13.63;;;8.20;;
46230;SDS011;31949;51.404;-0.038;2022-12-10T01:36:41;17.25;;;9.07;;
46230;SDS011;31949;51.404;-0.038;2022-12-10T01:39:17;17.50;;;9.45;;
46230;SDS011;31949;51.404;-0.038;2022-12-10T01:42:01;16.48;;;8.57;;
46230;SDS011;31949;51.404;-0.038;2022-12-10T01:47:03;14.65;;;8.02;;
46230;SDS011;31949;51.404;-0.038;2022-12-10T01:49:36;16.63;;;9.02;;
46230;SDS011;31949;51.404;-0.038;2022-12-10T01:52:06;13.82;;;8.13;;
46230;SDS011;31949;51.404;-0.038;2022-12-10T01:54:42;15.38;;;8.60;;
46230;SDS011;31949;51.404;-0.038;2022-12-10T01:57:26;14.68;;;8.73;;
46230;SDS011;31949;51.404;-0.038;2022-12-10T01:59:56;11.70;;;8.75;;
46230;SDS011;31949;51.404;-0.038;2022-12-10T02:02:46;13.75;;;8.60;;
46230;SDS011;31949;51.404;-0.038;2022-12-10T02:05:33;16.80;;;9.18;;
46230;SDS011;31949;51.404;-0.038;2022-12-10T02:08:18;21.80;;;11.02;;
46230;SDS011;31949;51.404;-0.038;2022-12-10T02:10:59;28.35;;;18.98;;
46230;SDS011;31949;51.404;-0.038;2022-12-10T02:14:01;41.20;;;23.83;;
46230;SDS011;31949;51.404;-0.038;2022-12-10T02:16:54;39.72;;;21.65;;
46230;SDS011;31949;51.404;-0.038;2022-12-10T02:22:20;23.08;;;13.95;;
46230;SDS011;31949;51.404;-0.038;2022-12-10T02:24:49;21.10;;;12.57;;
46230;SDS011;31949;51.404;-0.038;2022-12-10T02:27:35;19.85;;;10.88;;
46230;SDS011;31949;51.404;-0.038;2022-12-10T02:30:17;17.30;;;9.80;;
46230;SDS011;31949;51.404;-0.038;2022-12-10T02:32:48;14.43;;;9.18;;
46230;SDS011;31949;51.404;-0.038;2022-12-10T02:35:19;14.98;;;8.85;;
46230;SDS011;31949;51.404;-0.038;2022-12-10T02:37:53;13.75;;;8.75;;
46230;SDS011;31949;51.404;-0.038;2022-12-10T02:40:34;15.63;;;8.63;;
46230;SDS011;31949;51.404;-0.038;2022-12-10T02:43:07;14.82;;;8.88;;
46230;SDS011;31949;51.404;-0.038;2022-12-10T02:45:38;17.35;;;10.75;;
46230;SDS011;31949;51.404;-0.038;2022-12-10T02:48:07;17.38;;;10.20;;
46230;SDS011;31949;51.404;-0.038;2022-12-10T02:50:39;14.75;;;9.07;;
46230;SDS011;31949;51.404;-0.038;2022-12-10T02:53:09;16.48;;;9.20;;
46230;SDS011;31949;51.404;-0.038;2022-12-10T03:01:27;12.90;;;8.48;;
46230;SDS011;31949;51.404;-0.038;2022-12-10T03:06:30;14.20;;;8.48;;
46230;SDS011;31949;51.404;-0.038;2022-12-10T03:09:24;13.27;;;8.32;;
46230;SDS011;31949;51.404;-0.038;2022-12-10T03:11:57;15.95;;;9.18;;
46230;SDS011;31949;51.404;-0.038;2022-12-10T03:14:29;18.17;;;9.98;;
46230;SDS011;31949;51.404;-0.038;2022-12-10T03:17:00;17.42;;;8.90;;
46230;SDS011;31949;51.404;-0.038;2022-12-10T03:19:30;18.05;;;8.85;;
46230;SDS011;31949;51.404;-0.038;2022-12-10T03:22:03;13.23;;;8.70;;
46230;SDS011;31949;51.404;-0.038;2022-12-10T03:24:32;14.52;;;8.20;;
46230;SDS011;31949;51.404;-0.038;2022-12-10T03:27:04;16.48;;;7.85;;
46230;SDS011;31949;51.404;-0.038;2022-12-10T03:29:46;12.63;;;7.90;;
46230;SDS011;31949;51.404;-0.038;2022-12-10T03:32:15;15.77;;;7.82;;
46230;SDS011;31949;51.404;-0.038;2022-12-10T03:34:44;17.27;;;8.63;;
46230;SDS011;31949;51.404;-0.038;2022-12-10T03:37:12;17.63;;;9.80;;
46230;SDS011;31949;51.404;-0.038;2022-12-10T03:39:40;12.52;;;8.23;;
46230;SDS011;31949;51.404;-0.038;2022-12-10T03:42:08;14.57;;;8.48;;
46230;SDS011;31949;51.404;-0.038;2022-12-10T03:44:38;17.52;;;9.25;;
46230;SDS011;31949;51.404;-0.038;2022-12-10T03:47:10;11.77;;;7.80;;
46230;SDS011;31949;51.404;-0.038;2022-12-10T03:52:13;11.88;;;7.82;;
46230;SDS011;31949;51.404;-0.038;2022-12-10T03:54:41;15.32;;;8.43;;
46230;SDS011;31949;51.404;-0.038;2022-12-10T03:57:11;11.85;;;7.65;;
46230;SDS011;31949;51.404;-0.038;2022-12-10T03:59:38;16.00;;;8.30;;
46230;SDS011;31949;51.404;-0.038;2022-12-10T04:02:07;16.23;;;8.25;;
46230;SDS011;31949;51.404;-0.038;2022-12-10T04:04:37;12.32;;;8.02;;
46230;SDS011;31949;51.404;-0.038;2022-12-10T04:07:09;11.60;;;7.72;;
46230;SDS011;31949;51.404;-0.038;2022-12-10T04:09:37;14.02;;;7.82;;
46230;SDS011;31949;51.404;-0.038;2022-12-10T04:12:04;14.48;;;8.00;;
46230;SDS011;31949;51.404;-0.038;2022-12-10T04:14:32;12.40;;;8.05;;
46230;SDS011;31949;51.404;-0.038;2022-12-10T04:17:18;16.00;;;8.02;;
46230;SDS011;31949;51.404;-0.038;2022-12-10T04:19:45;16.77;;;9.77;;
46230;SDS011;31949;51.404;-0.038;2022-12-10T04:22:12;13.55;;;7.05;;
46230;SDS011;31949;51.404;-0.038;2022-12-10T04:24:57;15.48;;;7.25;;
46230;SDS011;31949;51.404;-0.038;2022-12-10T04:27:54;13.65;;;7.70;;
46230;SDS011;31949;51.404;-0.038;2022-12-10T04:30:21;13.30;;;7.90;;
46230;SDS011;31949;51.404;-0.038;2022-12-10T04:32:48;9.98;;;7.22;;
46230;SDS011;31949;51.404;-0.038;2022-12-10T04:35:15;13.32;;;7.93;;
46230;SDS011;31949;51.404;-0.038;2022-12-10T04:37:43;15.50;;;7.65;;
46230;SDS011;31949;51.404;-0.038;2022-12-10T04:40:10;13.88;;;7.35;;
46230;SDS011;31949;51.404;-0.038;2022-12-10T04:42:40;12.05;;;7.65;;
46230;SDS011;31949;51.404;-0.038;2022-12-10T04:45:08;14.50;;;7.72;;
46230;SDS011;31949;51.404;-0.038;2022-12-10T04:47:35;12.32;;;7.72;;
46230;SDS011;31949;51.404;-0.038;2022-12-10T04:50:03;14.02;;;6.88;;
46230;SDS011;31949;51.404;-0.038;2022-12-10T04:52:30;13.63;;;7.35;;
46230;SDS011;31949;51.404;-0.038;2022-12-10T04:54:57;11.43;;;6.72;;
46230;SDS011;31949;51.404;-0.038;2022-12-10T04:57:24;11.88;;;7.93;;
46230;SDS011;31949;51.404;-0.038;2022-12-10T05:00:00;12.35;;;7.15;;
46230;SDS011;31949;51.404;-0.038;2022-12-10T05:02:28;14.05;;;6.53;;
46230;SDS011;31949;51.404;-0.038;2022-12-10T05:04:58;12.65;;;7.63;;
46230;SDS011;31949;51.404;-0.038;2022-12-10T05:07:25;13.98;;;7.03;;
46230;SDS011;31949;51.404;-0.038;2022-12-10T05:09:52;13.07;;;7.95;;
46230;SDS011;31949;51.404;-0.038;2022-12-10T05:12:22;12.13;;;6.97;;
46230;SDS011;31949;51.404;-0.038;2022-12-10T05:14:51;10.23;;;6.85;;
46230;SDS011;31949;51.404;-0.038;2022-12-10T05:17:23;12.55;;;7.15;;
46230;SDS011;31949;51.404;-0.038;2022-12-10T05:19:50;16.27;;;7.75;;
46230;SDS011;31949;51.404;-0.038;2022-12-10T05:22:23;10.57;;;6.40;;
46230;SDS011;31949;51.404;-0.038;2022-12-10T05:25:09;15.93;;;6.93;;
46230;SDS011;31949;51.404;-0.038;2022-12-10T05:27:36;15.60;;;7.55;;
46230;SDS011;31949;51.404;-0.038;2022-12-10T05:30:05;11.65;;;7.07;;
46230;SDS011;31949;51.404;-0.038;2022-12-10T05:32:37;12.75;;;7.20;;
46230;SDS011;31949;51.404;-0.038;2022-12-10T05:35:04;12.65;;;7.20;;
46230;SDS011;31949;51.404;-0.038;2022-12-10T05:37:32;13.77;;;8.23;;
46230;SDS011;31949;51.404;-0.038;2022-12-10T05:39:59;12.38;;;6.88;;
46230;SDS011;31949;51.404;-0.038;2022-12-10T05:42:29;13.98;;;8.13;;
46230;SDS011;31949;51.404;-0.038;2022-12-10T05:44:57;14.35;;;8.48;;
46230;SDS011;31949;51.404;-0.038;2022-12-10T05:47:25;13.60;;;7.30;;
46230;SDS011;31949;51.404;-0.038;2022-12-10T05:49:52;13.20;;;7.90;;
46230;SDS011;31949;51.404;-0.038;2022-12-10T05:52:19;13.05;;;7.68;;
46230;SDS011;31949;51.404;-0.038;2022-12-10T05:54:46;11.25;;;6.97;;
46230;SDS011;31949;51.404;-0.038;2022-12-10T05:57:14;13.30;;;6.63;;
46230;SDS011;31949;51.404;-0.038;2022-12-10T05:59:41;15.63;;;7.60;;
46230;SDS011;31949;51.404;-0.038;2022-12-10T06:02:08;11.10;;;7.88;;
46230;SDS011;31949;51.404;-0.038;2022-12-10T06:04:36;11.70;;;6.70;;
46230;SDS011;31949;51.404;-0.038;2022-12-10T06:07:03;8.65;;;5.82;;
46230;SDS011;31949;51.404;-0.038;2022-12-10T06:09:36;14.90;;;6.40;;
46230;SDS011;31949;51.404;-0.038;2022-12-10T06:12:06;14.93;;;6.97;;
46230;SDS011;31949;51.404;-0.038;2022-12-10T06:14:33;15.23;;;7.07;;
46230;SDS011;31949;51.404;-0.038;2022-12-10T06:17:01;10.43;;;7.32;;
46230;SDS011;31949;51.404;-0.038;2022-12-10T06:19:28;11.48;;;7.22;;
46230;SDS011;31949;51.404;-0.038;2022-12-10T06:21:55;15.38;;;7.65;;
46230;SDS011;31949;51.404;-0.038;2022-12-10T06:24:24;14.65;;;7.97;;
46230;SDS011;31949;51.404;-0.038;2022-12-10T06:26:52;13.43;;;6.63;;
46230;SDS011;31949;51.404;-0.038;2022-12-10T06:29:22;10.93;;;6.88;;
46230;SDS011;31949;51.404;-0.038;2022-12-10T06:31:49;13.95;;;6.40;;
46230;SDS011;31949;51.404;-0.038;2022-12-10T06:34:16;11.45;;;6.30;;
46230;SDS011;31949;51.404;-0.038;2022-12-10T06:36:43;13.90;;;7.15;;
46230;SDS011;31949;51.404;-0.038;2022-12-10T06:39:10;11.15;;;5.93;;
46230;SDS011;31949;51.404;-0.038;2022-12-10T06:41:38;10.93;;;6.47;;
46230;SDS011;31949;51.404;-0.038;2022-12-10T06:44:08;12.77;;;6.97;;
46230;SDS011;31949;51.404;-0.038;2022-12-10T06:46:36;13.18;;;7.05;;
46230;SDS011;31949;51.404;-0.038;2022-12-10T06:49:05;9.73;;;6.40;;
46230;SDS011;31949;51.404;-0.038;2022-12-10T06:51:33;13.68;;;7.43;;
46230;SDS011;31949;51.404;-0.038;2022-12-10T06:54:00;12.77;;;7.05;;
46230;SDS011;31949;51.404;-0.038;2022-12-10T06:56:28;13.20;;;7.53;;
46230;SDS011;31949;51.404;-0.038;2022-12-10T06:58:55;13.07;;;6.43;;
46230;SDS011;31949;51.404;-0.038;2022-12-10T07:01:23;10.80;;;7.13;;
46230;SDS011;31949;51.404;-0.038;2022-12-10T07:03:55;11.52;;;7.53;;
46230;SDS011;31949;51.404;-0.038;2022-12-10T07:06:23;13.60;;;7.05;;
46230;SDS011;31949;51.404;-0.038;2022-12-10T07:08:51;17.67;;;7.45;;
46230;SDS011;31949;51.404;-0.038;2022-12-10T07:11:19;12.75;;;7.22;;
46230;SDS011;31949;51.404;-0.038;2022-12-10T07:13:48;11.02;;;6.57;;
46230;SDS011;31949;51.404;-0.038;2022-12-10T07:16:20;10.25;;;6.05;;
46230;SDS011;31949;51.404;-0.038;2022-12-10T07:18:49;13.18;;;8.70;;
46230;SDS011;31949;51.404;-0.038;2022-12-10T07:21:22;13.52;;;7.55;;
46230;SDS011;31949;51.404;-0.038;2022-12-10T07:23:52;12.27;;;7.40;;
46230;SDS011;31949;51.404;-0.038;2022-12-10T07:26:22;15.73;;;8.52;;
46230;SDS011;31949;51.404;-0.038;2022-12-10T07:28:50;12.90;;;6.60;;
46230;SDS011;31949;51.404;-0.038;2022-12-10T07:31:20;10.02;;;7.00;;
46230;SDS011;31949;51.404;-0.038;2022-12-10T07:33:52;10.32;;;6.75;;
46230;SDS011;31949;51.404;-0.038;2022-12-10T07:36:20;12.07;;;6.65;;
46230;SDS011;31949;51.404;-0.038;2022-12-10T07:38:52;10.57;;;5.53;;
46230;SDS011;31949;51.404;-0.038;2022-12-10T07:41:20;10.43;;;6.90;;
46230;SDS011;31949;51.404;-0.038;2022-12-10T07:43:48;11.80;;;7.13;;
46230;SDS011;31949;51.404;-0.038;2022-12-10T07:46:23;15.88;;;8.05;;
46230;SDS011;31949;51.404;-0.038;2022-12-10T07:48:53;12.68;;;6.63;;
46230;SDS011;31949;51.404;-0.038;2022-12-10T07:51:21;13.13;;;6.78;;
46230;SDS011;31949;51.404;-0.038;2022-12-10T07:53:52;11.43;;;7.55;;
46230;SDS011;31949;51.404;-0.038;2022-12-10T07:56:21;16.98;;;7.40;;
46230;SDS011;31949;51.404;-0.038;2022-12-10T07:58:49;9.80;;;6.55;;
46230;SDS011;31949;51.404;-0.038;2022-12-10T08:01:19;10.95;;;7.18;;
46230;SDS011;31949;51.404;-0.038;2022-12-10T08:03:49;12.65;;;7.00;;
46230;SDS011;31949;51.404;-0.038;2022-12-10T08:06:17;12.15;;;6.55;;
46230;SDS011;31949;51.404;-0.038;2022-12-10T08:08:47;13.23;;;7.22;;
46230;SDS011;31949;51.404;-0.038;2022-12-10T08:11:16;13.93;;;7.78;;
46230;SDS011;31949;51.404;-0.038;2022-12-10T08:13:46;12.38;;;8.15;;
46230;SDS011;31949;51.404;-0.038;2022-12-10T08:16:22;13.27;;;7.78;;
46230;SDS011;31949;51.404;-0.038;2022-12-10T08:18:52;11.60;;;7.63;;
46230;SDS011;31949;51.404;-0.038;2022-12-10T08:21:23;13.88;;;7.57;;
46230;SDS011;31949;51.404;-0.038;2022-12-10T08:23:55;15.80;;;7.57;;
46230;SDS011;31949;51.404;-0.038;2022-12-10T08:26:23;13.38;;;8.63;;
46230;SDS011;31949;51.404;-0.038;2022-12-10T08:28:52;12.98;;;8.43;;
46230;SDS011;31949;51.404;-0.038;2022-12-10T08:31:21;15.32;;;8.05;;
46230;SDS011;31949;51.404;-0.038;2022-12-10T08:33:49;12.20;;;6.95;;
46230;SDS011;31949;51.404;-0.038;2022-12-10T08:36:17;14.30;;;8.38;;
46230;SDS011;31949;51.404;-0.038;2022-12-10T08:38:45;14.05;;;8.52;;
46230;SDS011;31949;51.404;-0.038;2022-12-10T08:41:14;15.35;;;8.38;;
46230;SDS011;31949;51.404;-0.038;2022-12-10T08:43:43;12.70;;;8.98;;
46230;SDS011;31949;51.404;-0.038;2022-12-10T08:46:10;14.55;;;9.82;;
46230;SDS011;31949;51.404;-0.038;2022-12-10T08:48:39;21.48;;;10.18;;
46230;SDS011;31949;51.404;-0.038;2022-12-10T08:51:08;15.68;;;9.82;;
46230;SDS011;31949;51.404;-0.038;2022-12-10T08:53:37;12.93;;;8.65;;
46230;SDS011;31949;51.404;-0.038;2022-12-10T08:56:04;16.45;;;8.70;;
46230;SDS011;31949;51.404;-0.038;2022-12-10T08:58:32;12.32;;;7.85;;
46230;SDS011;31949;51.404;-0.038;2022-12-10T09:00:59;14.80;;;8.43;;
46230;SDS011;31949;51.404;-0.038;2022-12-10T09:03:31;18.50;;;8.77;;
46230;SDS011;31949;51.404;-0.038;2022-12-10T09:06:01;16.98;;;9.20;;
46230;SDS011;31949;51.404;-0.038;2022-12-10T09:08:33;13.73;;;9.23;;
46230;SDS011;31949;51.404;-0.038;2022-12-10T09:13:40;15.23;;;8.95;;
46230;SDS011;31949;51.404;-0.038;2022-12-10T09:16:11;10.57;;;8.00;;
46230;SDS011;31949;51.404;-0.038;2022-12-10T09:18:44;14.32;;;7.78;;
46230;SDS011;31949;51.404;-0.038;2022-12-10T09:21:13;14.93;;;8.98;;
46230;SDS011;31949;51.404;-0.038;2022-12-10T09:23:42;12.32;;;8.27;;
46230;SDS011;31949;51.404;-0.038;2022-12-10T09:26:23;15.27;;;9.50;;
46230;SDS011;31949;51.404;-0.038;2022-12-10T09:28:51;17.45;;;9.20;;
46230;SDS011;31949;51.404;-0.038;2022-12-10T09:31:21;19.45;;;9.93;;
46230;SDS011;31949;51.404;-0.038;2022-12-10T09:33:52;18.80;;;10.00;;
46230;SDS011;31949;51.404;-0.038;2022-12-10T09:36:20;15.25;;;10.15;;
46230;SDS011;31949;51.404;-0.038;2022-12-10T09:38:54;18.50;;;10.27;;
46230;SDS011;31949;51.404;-0.038;2022-12-10T09:46:54;15.15;;;9.40;;
46230;SDS011;31949;51.404;-0.038;2022-12-10T09:52:11;20.80;;;11.02;;
46230;SDS011;31949;51.404;-0.038;2022-12-10T09:57:24;21.27;;;10.38;;
46230;SDS011;31949;51.404;-0.038;2022-12-10T09:59:59;27.08;;;12.35;;
46230;SDS011;31949;51.404;-0.038;2022-12-10T10:02:42;23.13;;;11.05;;
46230;SDS011;31949;51.404;-0.038;2022-12-10T10:05:10;23.90;;;11.05;;
46230;SDS011;31949;51.404;-0.038;2022-12-10T10:07:43;19.20;;;10.32;;
46230;SDS011;31949;51.404;-0.038;2022-12-10T10:10:20;20.10;;;10.07;;
46230;SDS011;31949;51.404;-0.038;2022-12-10T10:12:54;18.88;;;10.32;;
46230;SDS011;31949;51.404;-0.038;2022-12-10T10:15:28;16.63;;;8.50;;
46230;SDS011;31949;51.404;-0.038;2022-12-10T10:18:02;18.58;;;10.15;;
46230;SDS011;31949;51.404;-0.038;2022-12-10T10:20:49;15.32;;;8.43;;
46230;SDS011;31949;51.404;-0.038;2022-12-10T10:23:17;15.40;;;9.57;;
46230;SDS011;31949;51.404;-0.038;2022-12-10T10:25:44;16.77;;;9.40;;
46230;SDS011;31949;51.404;-0.038;2022-12-10T10:28:12;16.25;;;8.65;;
46230;SDS011;31949;51.404;-0.038;2022-12-10T10:30:46;15.15;;;7.75;;
46230;SDS011;31949;51.404;-0.038;2022-12-10T10:33:14;12.82;;;8.07;;
46230;SDS011;31949;51.404;-0.038;2022-12-10T10:35:43;13.13;;;7.40;;
46230;SDS011;31949;51.404;-0.038;2022-12-10T10:38:26;14.98;;;8.20;;
46230;SDS011;31949;51.404;-0.038;2022-12-10T10:40:59;10.55;;;7.25;;
46230;SDS011;31949;51.404;-0.038;2022-12-10T10:43:40;11.98;;;7.03;;
46230;SDS011;31949;51.404;-0.038;2022-12-10T10:46:20;13.10;;;7.57;;
46230;SDS011;31949;51.404;-0.038;2022-12-10T10:48:49;12.57;;;6.57;;
46230;SDS011;31949;51.404;-0.038;2022-12-10T10:51:21;9.52;;;5.90;;
46230;SDS011;31949;51.404;-0.038;2022-12-10T10:53:52;14.68;;;6.97;;
46230;SDS011;31949;51.404;-0.038;2022-12-10T10:56:25;12.20;;;7.35;;
46230;SDS011;31949;51.404;-0.038;2022-12-10T10:59:06;7.28;;;5.38;;
46230;SDS011;31949;51.404;-0.038;2022-12-10T11:04:12;6.82;;;4.60;;
46230;SDS011;31949;51.404;-0.038;2022-12-10T11:06:44;8.85;;;5.63;;
46230;SDS011;31949;51.404;-0.038;2022-12-10T11:09:32;9.48;;;5.80;;
46230;SDS011;31949;51.404;-0.038;2022-12-10T11:12:02;10.45;;;5.88;;
46230;SDS011;31949;51.404;-0.038;2022-12-10T11:14:43;8.55;;;5.47;;
46230;SDS011;31949;51.404;-0.038;2022-12-10T11:19:53;10.00;;;4.88;;
46230;SDS011;31949;51.404;-0.038;2022-12-10T11:22:24;7.53;;;5.25;;
46230;SDS011;31949;51.404;-0.038;2022-12-10T11:24:57;9.70;;;4.63;;
46230;SDS011;31949;51.404;-0.038;2022-12-10T11:30:31;6.90;;;5.50;;
46230;SDS011;31949;51.404;-0.038;2022-12-10T11:33:15;9.48;;;5.28;;
46230;SDS011;31949;51.404;-0.038;2022-12-10T11:41:32;8.60;;;5.20;;
46230;SDS011;31949;51.404;-0.038;2022-12-10T11:44:13;8.50;;;4.85;;
46230;SDS011;31949;51.404;-0.038;2022-12-10T11:46:56;7.35;;;5.15;;
46230;SDS011;31949;51.404;-0.038;2022-12-10T11:52:17;9.73;;;5.20;;
46230;SDS011;31949;51.404;-0.038;2022-12-10T12:00:47;6.45;;;4.15;;
46230;SDS011;31949;51.404;-0.038;2022-12-10T12:03:41;11.77;;;4.25;;
46230;SDS011;31949;51.404;-0.038;2022-12-10T12:11:52;8.32;;;4.95;;
46230;SDS011;31949;51.404;-0.038;2022-12-10T12:15:04;8.82;;;4.70;;
46230;SDS011;31949;51.404;-0.038;2022-12-10T12:17:33;10.00;;;4.30;;
46230;SDS011;31949;51.404;-0.038;2022-12-10T12:23:10;5.90;;;4.28;;
46230;SDS011;31949;51.404;-0.038;2022-12-10T12:25:46;8.38;;;4.65;;
46230;SDS011;31949;51.404;-0.038;2022-12-10T12:31:04;9.55;;;5.13;;
46230;SDS011;31949;51.404;-0.038;2022-12-10T12:33:46;10.15;;;5.43;;
46230;SDS011;31949;51.404;-0.038;2022-12-10T12:36:20;8.85;;;5.63;;
46230;SDS011;31949;51.404;-0.038;2022-12-10T12:46:44;7.90;;;4.43;;
46230;SDS011;31949;51.404;-0.038;2022-12-10T12:54:21;6.55;;;4.18;;
46230;SDS011;31949;51.404;-0.038;2022-12-10T12:56:59;7.40;;;3.72;;
46230;SDS011;31949;51.404;-0.038;2022-12-10T13:05:26;5.10;;;3.88;;
46230;SDS011;31949;51.404;-0.038;2022-12-10T13:08:15;7.07;;;5.10;;
46230;SDS011;31949;51.404;-0.038;2022-12-10T13:14:27;4.82;;;3.47;;
46230;SDS011;31949;51.404;-0.038;2022-12-10T13:29:46;5.38;;;4.10;;
46230;SDS011;31949;51.404;-0.038;2022-12-10T13:32:17;5.43;;;3.00;;
46230;SDS011;31949;51.404;-0.038;2022-12-10T13:35:41;5.75;;;3.78;;
46230;SDS011;31949;51.404;-0.038;2022-12-10T13:40:24;5.03;;;3.47;;
46230;SDS011;31949;51.404;-0.038;2022-12-10T13:48:51;6.55;;;4.22;;
46230;SDS011;31949;51.404;-0.038;2022-12-10T13:51:32;6.50;;;3.50;;
46230;SDS011;31949;51.404;-0.038;2022-12-10T14:08:06;5.00;;;3.63;;
46230;SDS011;31949;51.404;-0.038;2022-12-10T14:10:41;5.38;;;3.60;;
46230;SDS011;31949;51.404;-0.038;2022-12-10T14:13:11;5.40;;;3.33;;
46230;SDS011;31949;51.404;-0.038;2022-12-10T14:15:46;6.13;;;5.27;;
46230;SDS011;31949;51.404;-0.038;2022-12-10T14:18:20;3.97;;;2.80;;
46230;SDS011;31949;51.404;-0.038;2022-12-10T14:23:27;4.50;;;3.80;;
46230;SDS011;31949;51.404;-0.038;2022-12-10T14:26:16;4.55;;;3.55;;
46230;SDS011;31949;51.404;-0.038;2022-12-10T14:31:58;8.75;;;6.78;;
46230;SDS011;31949;51.404;-0.038;2022-12-10T14:34:27;11.25;;;6.47;;
46230;SDS011;31949;51.404;-0.038;2022-12-10T14:36:55;10.48;;;6.88;;
46230;SDS011;31949;51.404;-0.038;2022-12-10T14:39:28;4.80;;;3.58;;
46230;SDS011;31949;51.404;-0.038;2022-12-10T14:41:59;6.35;;;4.15;;
46230;SDS011;31949;51.404;-0.038;2022-12-10T14:44:29;6.07;;;3.55;;
46230;SDS011;31949;51.404;-0.038;2022-12-10T14:47:16;5.07;;;3.55;;
46230;SDS011;31949;51.404;-0.038;2022-12-10T14:49:51;5.93;;;4.47;;
46230;SDS011;31949;51.404;-0.038;2022-12-10T14:52:22;7.18;;;4.65;;
46230;SDS011;31949;51.404;-0.038;2022-12-10T14:54:51;7.70;;;4.38;;
46230;SDS011;31949;51.404;-0.038;2022-12-10T14:57:21;6.80;;;4.72;;
46230;SDS011;31949;51.404;-0.038;2022-12-10T15:02:31;8.30;;;4.38;;
46230;SDS011;31949;51.404;-0.038;2022-12-10T15:05:03;5.78;;;4.07;;
46230;SDS011;31949;51.404;-0.038;2022-12-10T15:07:44;5.65;;;3.80;;
46230;SDS011;31949;51.404;-0.038;2022-12-10T15:10:24;5.28;;;4.32;;
46230;SDS011;31949;51.404;-0.038;2022-12-10T15:13:01;9.52;;;5.03;;
46230;SDS011;31949;51.404;-0.038;2022-12-10T15:15:34;7.25;;;3.75;;
46230;SDS011;31949;51.404;-0.038;2022-12-10T15:18:08;5.22;;;4.47;;
46230;SDS011;31949;51.404;-0.038;2022-12-10T15:20:47;6.47;;;3.78;;
46230;SDS011;31949;51.404;-0.038;2022-12-10T15:31:41;8.23;;;4.65;;
46230;SDS011;31949;51.404;-0.038;2022-12-10T15:33:55;3.75;;;3.40;;
46230;SDS011;31949;51.404;-0.038;2022-12-10T15:36:37;5.60;;;3.13;;
46230;SDS011;31949;51.404;-0.038;2022-12-10T15:39:17;8.55;;;3.75;;
46230;SDS011;31949;51.404;-0.038;2022-12-10T15:44:23;5.47;;;3.70;;
46230;SDS011;31949;51.404;-0.038;2022-12-10T15:49:47;3.67;;;2.92;;
46230;SDS011;31949;51.404;-0.038;2022-12-10T15:52:16;5.30;;;3.35;;
46230;SDS011;31949;51.404;-0.038;2022-12-10T15:54:44;5.53;;;3.92;;
46230;SDS011;31949;51.404;-0.038;2022-12-10T15:57:14;7.45;;;3.85;;
46230;SDS011;31949;51.404;-0.038;2022-12-10T15:59:44;6.22;;;3.78;;
46230;SDS011;31949;51.404;-0.038;2022-12-10T16:02:36;6.00;;;4.78;;
46230;SDS011;31949;51.404;-0.038;2022-12-10T16:05:14;7.95;;;4.82;;
46230;SDS011;31949;51.404;-0.038;2022-12-10T16:07:45;6.65;;;4.47;;
46230;SDS011;31949;51.404;-0.038;2022-12-10T16:10:15;7.05;;;4.20;;
46230;SDS011;31949;51.404;-0.038;2022-12-10T16:12:57;6.88;;;4.30;;
46230;SDS011;31949;51.404;-0.038;2022-12-10T16:15:30;10.18;;;5.10;;
46230;SDS011;31949;51.404;-0.038;2022-12-10T16:18:04;8.73;;;6.35;;
46230;SDS011;31949;51.404;-0.038;2022-12-10T16:20:33;12.20;;;7.40;;
46230;SDS011;31949;51.404;-0.038;2022-12-10T16:23:00;11.30;;;8.07;;
46230;SDS011;31949;51.404;-0.038;2022-12-10T16:25:29;12.13;;;7.28;;
46230;SDS011;31949;51.404;-0.038;2022-12-10T16:27:57;13.75;;;8.48;;
46230;SDS011;31949;51.404;-0.038;2022-12-10T16:33:05;12.07;;;7.50;;
46230;SDS011;31949;51.404;-0.038;2022-12-10T16:35:32;14.65;;;8.75;;
46230;SDS011;31949;51.404;-0.038;2022-12-10T16:38:00;13.82;;;8.90;;
46230;SDS011;31949;51.404;-0.038;2022-12-10T16:40:35;11.00;;;7.95;;
46230;SDS011;31949;51.404;-0.038;2022-12-10T16:43:04;16.55;;;9.93;;
46230;SDS011;31949;51.404;-0.038;2022-12-10T16:47:58;22.20;;;11.77;;
46230;SDS011;31949;51.404;-0.038;2022-12-10T16:50:26;23.20;;;12.05;;
46230;SDS011;31949;51.404;-0.038;2022-12-10T16:52:54;16.95;;;10.25;;
46230;SDS011;31949;51.404;-0.038;2022-12-10T16:55:23;17.92;;;10.07;;
46230;SDS011;31949;51.404;-0.038;2022-12-10T16:57:51;12.70;;;9.63;;
46230;SDS011;31949;51.404;-0.038;2022-12-10T17:00:23;19.10;;;12.10;;
46230;SDS011;31949;51.404;-0.038;2022-12-10T17:02:51;20.35;;;12.43;;
46230;SDS011;31949;51.404;-0.038;2022-12-10T17:07:53;21.88;;;15.43;;
46230;SDS011;31949;51.404;-0.038;2022-12-10T17:10:22;19.95;;;13.75;;
46230;SDS011;31949;51.404;-0.038;2022-12-10T17:13:12;15.35;;;11.73;;
46230;SDS011;31949;51.404;-0.038;2022-12-10T17:18:13;17.50;;;10.20;;
46230;SDS011;31949;51.404;-0.038;2022-12-10T17:20:43;15.93;;;10.15;;
46230;SDS011;31949;51.404;-0.038;2022-12-10T17:23:11;17.17;;;9.57;;
46230;SDS011;31949;51.404;-0.038;2022-12-10T17:25:40;16.27;;;8.45;;
46230;SDS011;31949;51.404;-0.038;2022-12-10T17:28:18;14.00;;;9.02;;
46230;SDS011;31949;51.404;-0.038;2022-12-10T17:30:48;13.43;;;8.13;;
46230;SDS011;31949;51.404;-0.038;2022-12-10T17:33:17;12.05;;;7.03;;